createdAt,value
2023-03-06T00:01:11.042Z,101065.28
2023-03-06T00:03:42.257Z,101064.81
2023-03-06T00:06:08.827Z,101062.28
2023-03-06T00:08:35.408Z,101054.44
2023-03-06T00:11:01.877Z,101051.91
2023-03-06T00:13:32.054Z,101052.72
2023-03-06T00:16:05.062Z,101044.22
2023-03-06T00:18:31.597Z,101040.66
2023-03-06T00:21:00.356Z,101051.69
2023-03-06T00:23:31.848Z,101039.72
2023-03-06T00:26:01.191Z,101034.56
2023-03-06T00:28:31.115Z,101025.69
2023-03-06T00:30:57.584Z,101028.47
2023-03-06T00:33:24.054Z,101028.47
2023-03-06T00:35:50.578Z,101024.66
2023-03-06T00:38:17.151Z,101022.25
2023-03-06T00:40:43.688Z,101012.81
2023-03-06T00:43:15.651Z,101016.94
2023-03-06T00:45:44.467Z,101014.88
2023-03-06T00:48:13.219Z,100997.16
2023-03-06T00:50:39.713Z,100992.44
2023-03-06T00:53:06.408Z,100993.59
2023-03-06T00:55:36.460Z,100989.94
2023-03-06T00:58:02.929Z,100993.59
2023-03-06T01:00:29.446Z,100997.06
2023-03-06T01:02:58.288Z,100992.56
2023-03-06T01:05:24.916Z,100984.63
2023-03-06T01:07:53.944Z,100984.38
2023-03-06T01:10:22.875Z,100979.91
2023-03-06T01:12:51.697Z,100969.66
2023-03-06T01:15:20.447Z,100965.63
2023-03-06T01:17:49.248Z,100968.31
2023-03-06T01:20:17.616Z,100961.50
2023-03-06T01:22:44.556Z,100963.09
2023-03-06T01:25:14.501Z,100957.91
2023-03-06T01:27:41.305Z,100955.25
2023-03-06T01:30:11.041Z,100955.38
2023-03-06T01:32:40.113Z,100962.19
2023-03-06T01:35:09.576Z,100955.38
2023-03-06T01:37:39.114Z,100959.44
2023-03-06T01:40:10.459Z,100953.78
2023-03-06T01:42:46.818Z,100958.28
2023-03-06T01:45:13.293Z,100959.31
2023-03-06T01:47:42.261Z,100966.22
2023-03-06T01:50:11.824Z,100960.47
2023-03-06T01:52:54.129Z,100952.22
2023-03-06T01:55:30.424Z,100951.41
2023-03-06T01:58:02.386Z,100952.56
2023-03-06T02:00:31.756Z,100947.72
2023-03-06T02:03:09.609Z,100941.19
2023-03-06T02:05:37.030Z,100939.13
2023-03-06T02:08:06.894Z,100931.75
2023-03-06T02:10:36.951Z,100934.53
2023-03-06T02:13:08.130Z,100931.75
2023-03-06T02:15:37.001Z,100934.41
2023-03-06T02:18:05.151Z,100924.38
2023-03-06T02:20:32.042Z,100921.31
2023-03-06T02:23:21.885Z,100923.03
2023-03-06T02:25:53.113Z,100924.97
2023-03-06T02:28:22.616Z,100918.31
2023-03-06T02:30:51.239Z,100927.28
2023-03-06T02:33:26.542Z,100925.66
2023-03-06T02:35:57.679Z,100920.59
2023-03-06T02:38:29.757Z,100918.31
2023-03-06T02:40:58.121Z,100912.47
2023-03-06T02:43:30.204Z,100907.94
2023-03-06T02:45:59.593Z,100904.53
2023-03-06T02:48:27.421Z,100904.63
2023-03-06T02:51:00.004Z,100903.81
2023-03-06T02:53:26.920Z,100895.88
2023-03-06T02:55:53.389Z,100886.81
2023-03-06T02:58:22.412Z,100881.28
2023-03-06T03:00:51.706Z,100877.47
2023-03-06T03:03:20.976Z,100874.59
2023-03-06T03:05:50.021Z,100873.41
2023-03-06T03:08:18.159Z,100866.75
2023-03-06T03:10:47.124Z,100864.13
2023-03-06T03:13:15.902Z,100864.66
2023-03-06T03:15:42.553Z,100852.44
2023-03-06T03:18:13.158Z,100843.94
2023-03-06T03:20:42.252Z,100847.25
2023-03-06T03:23:08.720Z,100849.44
2023-03-06T03:25:35.196Z,100839.31
2023-03-06T03:28:02.751Z,100838.38
2023-03-06T03:30:29.345Z,100839.22
2023-03-06T03:32:55.841Z,100826.41
2023-03-06T03:35:27.622Z,100828.69
2023-03-06T03:37:55.250Z,100820.88
2023-03-06T03:40:24.251Z,100824.19
2023-03-06T03:42:50.753Z,100822.47
2023-03-06T03:45:19.743Z,100817.97
2023-03-06T03:47:46.266Z,100820.00
2023-03-06T03:50:12.758Z,100811.63
2023-03-06T03:52:39.249Z,100813.88
2023-03-06T03:55:11.628Z,100811.91
2023-03-06T03:57:39.795Z,100813.53
2023-03-06T04:00:08.017Z,100805.81
2023-03-06T04:02:37.023Z,100808.09
2023-03-06T04:05:06.115Z,100806.22
2023-03-06T04:07:32.608Z,100804.53
2023-03-06T04:10:03.239Z,100808.53
2023-03-06T04:12:30.162Z,100800.69
2023-03-06T04:14:57.255Z,100800.56
2023-03-06T04:17:23.773Z,100796.88
2023-03-06T04:19:50.342Z,100790.72
2023-03-06T04:22:22.161Z,100798.88
2023-03-06T04:24:51.493Z,100784.22
2023-03-06T04:27:18.001Z,100785.03
2023-03-06T04:29:47.248Z,100785.03
2023-03-06T04:32:16.510Z,100773.19
2023-03-06T04:34:45.091Z,100772.13
2023-03-06T04:37:20.793Z,100775.44
2023-03-06T04:39:47.508Z,100771.97
2023-03-06T04:42:14.769Z,100768.53
2023-03-06T04:44:41.261Z,100763.22
2023-03-06T04:47:07.785Z,100771.59
2023-03-06T04:49:34.616Z,100770.66
2023-03-06T04:52:01.103Z,100762.97
2023-03-06T04:54:29.024Z,100769.78
2023-03-06T04:56:56.040Z,100757.09
2023-03-06T04:59:22.646Z,100767.22
2023-03-06T05:01:49.192Z,100753.63
2023-03-06T05:04:16.189Z,100759.22
2023-03-06T05:06:42.675Z,100763.50
2023-03-06T05:09:15.032Z,100765.09
2023-03-06T05:11:41.620Z,100762.44
2023-03-06T05:14:08.796Z,100761.38
2023-03-06T05:16:37.741Z,100762.06
2023-03-06T05:19:05.509Z,100753.41
2023-03-06T05:21:36.841Z,100749.00
2023-03-06T05:24:06.148Z,100756.50
2023-03-06T05:26:42.597Z,100758.09
2023-03-06T05:29:11.356Z,100748.75
2023-03-06T05:31:38.205Z,100746.09
2023-03-06T05:34:08.414Z,100744.25
2023-03-06T05:36:37.463Z,100743.44
2023-03-06T05:39:04.725Z,100743.44
2023-03-06T05:41:31.579Z,100739.16
2023-03-06T05:44:00.255Z,100734.91
2023-03-06T05:46:29.277Z,100732.22
2023-03-06T05:48:57.951Z,100725.41
2023-03-06T05:51:26.650Z,100728.88
2023-03-06T05:54:00.792Z,100728.09
2023-03-06T05:56:27.338Z,100729.94
2023-03-06T05:58:53.830Z,100726.88
2023-03-06T06:01:20.886Z,100728.72
2023-03-06T06:03:52.628Z,100733.00
2023-03-06T06:06:19.193Z,100732.19
2023-03-06T06:08:47.752Z,100729.66
2023-03-06T06:11:21.868Z,100738.06
2023-03-06T06:13:51.388Z,100741.66
2023-03-06T06:16:20.209Z,100747.28
2023-03-06T06:18:47.080Z,100747.81
2023-03-06T06:21:14.722Z,100749.31
2023-03-06T06:23:47.090Z,100743.97
2023-03-06T06:26:17.403Z,100741.19
2023-03-06T06:28:44.000Z,100752.78
2023-03-06T06:31:13.365Z,100746.78
2023-03-06T06:33:42.630Z,100750.81
2023-03-06T06:36:21.751Z,100749.72
2023-03-06T06:38:49.953Z,100755.34
2023-03-06T06:41:39.233Z,100751.63
2023-03-06T06:44:11.218Z,100746.28
2023-03-06T06:49:28.727Z,100748.97
2023-03-06T06:51:55.634Z,100747.78
2023-03-06T06:54:22.963Z,100755.25
2023-03-06T06:56:49.511Z,100748.22
2023-03-06T06:59:18.604Z,100742.19
2023-03-06T07:01:45.218Z,100746.03
2023-03-06T07:04:14.840Z,100750.88
2023-03-06T07:06:42.280Z,100750.88
2023-03-06T07:09:11.561Z,100759.97
2023-03-06T07:11:40.921Z,100760.63
2023-03-06T07:14:10.120Z,100755.28
2023-03-06T07:16:43.094Z,100764.22
2023-03-06T07:19:10.273Z,100764.78
2023-03-06T07:21:36.809Z,100765.31
2023-03-06T07:24:03.468Z,100767.56
2023-03-06T07:26:34.956Z,100763.31
2023-03-06T07:29:02.151Z,100776.66
2023-03-06T07:31:30.842Z,100775.97
2023-03-06T07:34:01.899Z,100776.91
2023-03-06T07:36:29.801Z,100774.28
2023-03-06T07:38:56.295Z,100770.13
2023-03-06T07:41:24.970Z,100770.44
2023-03-06T07:43:56.309Z,100777.75
2023-03-06T07:46:25.169Z,100780.97
2023-03-06T07:48:51.743Z,100780.94
2023-03-06T07:51:20.681Z,100787.44
2023-03-06T07:53:48.185Z,100776.28
2023-03-06T07:56:16.921Z,100787.72
2023-03-06T07:58:51.285Z,100782.44
2023-03-06T08:01:24.217Z,100782.47
2023-03-06T08:03:50.952Z,100785.94
2023-03-06T08:06:20.522Z,100787.69
2023-03-06T08:08:51.021Z,100781.53
2023-03-06T08:11:19.593Z,100778.38
2023-03-06T08:13:48.294Z,100777.41
2023-03-06T08:16:16.176Z,100779.75
2023-03-06T08:18:45.029Z,100781.09
2023-03-06T08:21:15.660Z,100777.97
2023-03-06T08:23:45.108Z,100789.09
2023-03-06T08:26:26.573Z,100785.28
2023-03-06T08:28:58.928Z,100785.81
2023-03-06T08:31:32.838Z,100789.81
2023-03-06T08:34:03.525Z,100788.88
2023-03-06T08:36:32.477Z,100786.59
2023-03-06T08:38:59.617Z,100779.91
2023-03-06T08:41:36.258Z,100795.41
2023-03-06T08:44:09.080Z,100787.91
2023-03-06T08:46:40.464Z,100790.59
2023-03-06T08:49:09.834Z,100786.03
2023-03-06T08:51:36.418Z,100778.31
2023-03-06T08:54:05.268Z,100779.63
2023-03-06T08:56:36.670Z,100774.53
2023-03-06T08:59:06.610Z,100776.06
2023-03-06T09:01:38.112Z,100775.59
2023-03-06T09:04:10.518Z,100779.59
2023-03-06T09:06:43.390Z,100773.00
2023-03-06T09:09:12.681Z,100774.50
2023-03-06T09:11:39.416Z,100778.16
2023-03-06T09:14:06.655Z,100778.63
2023-03-06T09:16:33.409Z,100775.38
2023-03-06T09:19:02.327Z,100779.09
2023-03-06T09:21:28.933Z,100775.09
2023-03-06T09:23:57.929Z,100774.44
2023-03-06T09:26:39.613Z,100770.00
2023-03-06T09:29:12.593Z,100776.66
2023-03-06T09:31:41.260Z,100776.44
2023-03-06T09:34:07.786Z,100778.56
2023-03-06T09:36:53.275Z,100773.28
2023-03-06T09:39:22.181Z,100771.03
2023-03-06T09:41:50.398Z,100776.31
2023-03-06T09:44:18.591Z,100782.63
2023-03-06T09:46:44.961Z,100769.81
2023-03-06T09:49:36.076Z,100769.56
2023-03-06T09:52:20.624Z,100767.66
2023-03-06T09:54:49.435Z,100768.75
2023-03-06T09:57:24.229Z,100777.66
2023-03-06T09:59:56.733Z,100771.13
2023-03-06T10:02:46.130Z,100772.25
2023-03-06T10:05:25.045Z,100773.44
2023-03-06T10:08:06.413Z,100771.09
2023-03-06T10:10:44.874Z,100778.41
2023-03-06T10:13:41.691Z,100783.03
2023-03-06T10:16:31.459Z,100782.47
2023-03-06T10:19:14.870Z,100781.03
2023-03-06T10:21:53.330Z,100777.09
2023-03-06T10:24:22.799Z,100770.44
2023-03-06T10:26:57.760Z,100777.97
2023-03-06T10:30:00.118Z,100770.16
2023-03-06T10:32:49.214Z,100770.81
2023-03-06T10:35:21.875Z,100772.53
2023-03-06T10:37:58.301Z,100774.31
2023-03-06T10:40:31.064Z,100772.72
2023-03-06T10:43:10.786Z,100760.88
2023-03-06T10:45:49.463Z,100769.16
2023-03-06T10:48:20.289Z,100776.19
2023-03-06T10:50:46.834Z,100775.44
2023-03-06T10:53:26.351Z,100772.84
2023-03-06T10:56:03.137Z,100773.44
2023-03-06T10:58:34.474Z,100767.53
2023-03-06T11:01:21.400Z,100763.97
2023-03-06T11:03:52.124Z,100757.19
2023-03-06T11:06:34.995Z,100764.50
2023-03-06T11:09:23.314Z,100757.19
2023-03-06T11:11:50.966Z,100756.13
2023-03-06T11:14:20.817Z,100757.03
2023-03-06T11:16:55.437Z,100756.03
2023-03-06T11:19:32.687Z,100748.25
2023-03-06T11:22:16.424Z,100745.28
2023-03-06T11:24:48.234Z,100743.59
2023-03-06T11:27:34.323Z,100736.88
2023-03-06T11:30:10.154Z,100738.41
2023-03-06T11:33:00.330Z,100731.81
2023-03-06T11:35:35.874Z,100730.69
2023-03-06T11:38:20.795Z,100720.03
2023-03-06T11:40:55.644Z,100717.28
2023-03-06T11:43:48.446Z,100718.09
2023-03-06T11:46:26.332Z,100715.09
2023-03-06T11:49:06.401Z,100718.06
2023-03-06T11:51:45.033Z,100712.97
2023-03-06T11:54:15.592Z,100709.44
2023-03-06T11:56:59.617Z,100706.44
2023-03-06T11:59:38.388Z,100703.41
2023-03-06T12:02:39.582Z,100703.38
2023-03-06T12:05:24.310Z,100707.72
2023-03-06T12:08:17.842Z,100697.38
2023-03-06T12:10:54.353Z,100689.44
2023-03-06T12:13:38.890Z,100696.53
2023-03-06T12:16:08.046Z,100689.97
2023-03-06T12:18:58.996Z,100694.91
2023-03-06T12:21:59.274Z,100685.66
2023-03-06T12:25:01.115Z,100687.00
2023-03-06T12:27:48.723Z,100683.00
2023-03-06T12:30:49.126Z,100681.00
2023-03-06T12:33:37.392Z,100674.56
2023-03-06T12:36:40.890Z,100683.34
2023-03-06T12:39:23.318Z,100662.41
2023-03-06T12:42:23.485Z,100673.72
2023-03-06T12:45:26.603Z,100661.84
2023-03-06T12:47:58.892Z,100660.09
2023-03-06T12:50:31.181Z,100657.97
2023-03-06T12:53:07.382Z,100654.88
2023-03-06T12:55:46.416Z,100660.06
2023-03-06T12:58:30.546Z,100651.19
2023-03-06T13:01:04.913Z,100651.78
2023-03-06T13:03:41.280Z,100652.31
2023-03-06T13:06:20.086Z,100641.06
2023-03-06T13:09:12.344Z,100636.03
2023-03-06T13:12:03.888Z,100637.31
2023-03-06T13:14:54.954Z,100635.00
2023-03-06T13:17:24.597Z,100621.28
2023-03-06T13:20:14.103Z,100623.16
2023-03-06T13:22:47.136Z,100614.69
2023-03-06T13:25:16.684Z,100618.16
2023-03-06T13:27:54.649Z,100607.63
2023-03-06T13:30:36.391Z,100610.19
2023-03-06T13:33:35.083Z,100604.84
2023-03-06T13:36:16.819Z,100599.81
2023-03-06T13:38:45.530Z,100586.66
2023-03-06T13:41:25.183Z,100586.94
2023-03-06T13:44:02.481Z,100578.50
2023-03-06T13:46:37.358Z,100578.97
2023-03-06T13:49:12.719Z,100576.53
2023-03-06T13:51:40.796Z,100572.44
2023-03-06T13:54:28.883Z,100567.19
2023-03-06T13:57:02.799Z,100571.19
2023-03-06T14:00:08.647Z,100564.31
2023-03-06T14:02:57.064Z,100566.75
2023-03-06T14:05:34.725Z,100565.59
2023-03-06T14:08:02.088Z,100564.09
2023-03-06T14:10:34.645Z,100561.50
2023-03-06T14:13:05.525Z,100568.47
2023-03-06T14:15:47.624Z,100561.28
2023-03-06T14:18:19.579Z,100555.09
2023-03-06T14:20:54.380Z,100541.38
2023-03-06T14:23:28.064Z,100538.66
2023-03-06T14:26:22.348Z,100538.84
2023-03-06T14:28:54.177Z,100539.69
2023-03-06T14:31:32.917Z,100540.50
2023-03-06T14:34:08.130Z,100534.16
2023-03-06T14:36:42.025Z,100534.72
2023-03-06T14:39:16.532Z,100536.81
2023-03-06T14:41:44.015Z,100522.34
2023-03-06T14:44:21.496Z,100524.59
2023-03-06T14:46:56.758Z,100519.97
2023-03-06T14:49:25.366Z,100515.81
2023-03-06T14:51:54.597Z,100511.16
2023-03-06T14:54:39.836Z,100516.13
2023-03-06T14:57:15.881Z,100516.44
2023-03-06T14:59:50.890Z,100507.06
2023-03-06T15:02:27.316Z,100508.16
2023-03-06T15:05:04.322Z,100513.91
2023-03-06T15:07:33.137Z,100514.09
2023-03-06T15:10:04.828Z,100507.56
2023-03-06T15:12:34.938Z,100498.97
2023-03-06T15:15:24.282Z,100491.78
2023-03-06T15:17:53.413Z,100491.28
2023-03-06T15:20:38.791Z,100487.44
2023-03-06T15:23:18.468Z,100484.72
2023-03-06T15:26:33.344Z,100478.50
2023-03-06T15:29:26.317Z,100477.72
2023-03-06T15:31:52.865Z,100472.75
2023-03-06T15:34:26.181Z,100471.47
2023-03-06T15:36:57.682Z,100468.44
2023-03-06T15:39:37.374Z,100475.59
2023-03-06T15:42:19.111Z,100478.66
2023-03-06T15:44:56.610Z,100465.28
2023-03-06T15:47:23.780Z,100473.75
2023-03-06T15:49:53.054Z,100465.00
2023-03-06T15:52:21.496Z,100459.72
2023-03-06T15:54:50.437Z,100462.28
2023-03-06T15:57:24.621Z,100454.78
2023-03-06T15:59:51.781Z,100451.44
2023-03-06T16:02:24.493Z,100444.59
2023-03-06T16:04:53.550Z,100443.94
2023-03-06T16:07:24.227Z,100440.94
2023-03-06T16:09:53.134Z,100437.56
2023-03-06T16:12:23.178Z,100433.75
2023-03-06T16:14:50.072Z,100445.03
2023-03-06T16:17:19.147Z,100437.25
2023-03-06T16:19:45.665Z,100442.16
2023-03-06T16:22:13.111Z,100439.59
2023-03-06T16:24:39.630Z,100445.09
2023-03-06T16:27:06.919Z,100439.50
2023-03-06T16:29:33.618Z,100433.91
2023-03-06T16:32:01.826Z,100435.03
2023-03-06T16:34:28.375Z,100433.41
2023-03-06T16:36:59.775Z,100427.94
2023-03-06T16:39:28.615Z,100422.16
2023-03-06T16:41:55.367Z,100423.88
2023-03-06T16:44:26.641Z,100421.59
2023-03-06T16:46:53.147Z,100422.69
2023-03-06T16:49:28.826Z,100424.44
2023-03-06T16:51:56.247Z,100415.00
2023-03-06T16:54:26.084Z,100411.81
2023-03-06T16:56:54.613Z,100406.09
2023-03-06T16:59:21.235Z,100406.53
2023-03-06T17:01:49.968Z,100403.66
2023-03-06T17:04:16.476Z,100407.94
2023-03-06T17:06:43.736Z,100407.00
2023-03-06T17:09:14.238Z,100405.84
2023-03-06T17:11:47.016Z,100393.28
2023-03-06T17:14:13.588Z,100390.75
2023-03-06T17:16:40.653Z,100389.63
2023-03-06T17:19:09.935Z,100386.75
2023-03-06T17:21:39.259Z,100379.91
2023-03-06T17:24:06.615Z,100376.41
2023-03-06T17:26:33.127Z,100367.53
2023-03-06T17:29:02.158Z,100367.66
2023-03-06T17:31:31.717Z,100368.75
2023-03-06T17:34:03.419Z,100365.41
2023-03-06T17:36:31.545Z,100360.19
2023-03-06T17:39:00.097Z,100353.50
2023-03-06T17:41:26.770Z,100349.38
2023-03-06T17:43:56.413Z,100352.41
2023-03-06T17:46:25.541Z,100353.69
2023-03-06T17:48:52.095Z,100341.16
2023-03-06T17:51:18.621Z,100348.78
2023-03-06T17:53:47.413Z,100343.34
2023-03-06T17:56:15.538Z,100339.06
2023-03-06T17:58:44.457Z,100337.81
2023-03-06T18:01:19.169Z,100342.75
2023-03-06T18:03:53.203Z,100344.50
2023-03-06T18:06:27.752Z,100326.69
2023-03-06T18:08:54.521Z,100335.91
2023-03-06T18:11:23.528Z,100328.13
2023-03-06T18:13:54.767Z,100328.78
2023-03-06T18:16:23.747Z,100328.63
2023-03-06T18:18:59.008Z,100325.75
2023-03-06T18:21:27.323Z,100323.19
2023-03-06T18:23:53.908Z,100324.59
2023-03-06T18:26:29.110Z,100323.00
2023-03-06T18:29:04.368Z,100321.41
2023-03-06T18:31:34.797Z,100313.94
2023-03-06T18:34:09.332Z,100311.34
2023-03-06T18:36:40.919Z,100314.97
2023-03-06T18:39:11.519Z,100301.13
2023-03-06T18:41:38.677Z,100303.66
2023-03-06T18:44:08.765Z,100295.22
2023-03-06T18:46:38.128Z,100292.31
2023-03-06T18:49:05.664Z,100298.47
2023-03-06T18:51:35.039Z,100290.38
2023-03-06T18:54:05.813Z,100289.88
2023-03-06T18:56:34.041Z,100280.66
2023-03-06T18:59:04.981Z,100269.19
2023-03-06T19:01:32.367Z,100281.09
2023-03-06T19:04:01.412Z,100270.59
2023-03-06T19:06:30.104Z,100267.41
2023-03-06T19:09:02.452Z,100253.25
2023-03-06T19:11:34.740Z,100257.69
2023-03-06T19:14:01.621Z,100252.13
2023-03-06T19:16:31.202Z,100246.41
2023-03-06T19:19:00.387Z,100240.53
2023-03-06T19:21:29.587Z,100236.53
2023-03-06T19:23:59.183Z,100237.47
2023-03-06T19:26:27.011Z,100229.06
2023-03-06T19:28:55.948Z,100237.47
2023-03-06T19:31:27.884Z,100232.41
2023-03-06T19:33:57.498Z,100225.53
2023-03-06T19:36:32.481Z,100224.88
2023-03-06T19:39:07.446Z,100217.41
2023-03-06T19:41:36.920Z,100220.09
2023-03-06T19:44:05.724Z,100216.25
2023-03-06T19:46:36.167Z,100204.53
2023-03-06T19:49:05.587Z,100197.97
2023-03-06T19:51:34.324Z,100200.84
2023-03-06T19:54:01.488Z,100198.41
2023-03-06T19:56:33.755Z,100187.47
2023-03-06T19:59:02.737Z,100185.72
2023-03-06T20:01:30.694Z,100178.44
2023-03-06T20:04:00.533Z,100169.22
2023-03-06T20:06:30.206Z,100161.75
2023-03-06T20:08:56.850Z,100158.13
2023-03-06T20:11:26.189Z,100149.88
2023-03-06T20:13:54.178Z,100155.59
2023-03-06T20:16:20.655Z,100150.19
2023-03-06T20:18:47.245Z,100146.44
2023-03-06T20:21:16.736Z,100142.03
2023-03-06T20:23:43.521Z,100134.41
2023-03-06T20:26:12.490Z,100130.13
2023-03-06T20:28:42.644Z,100123.16
2023-03-06T20:31:17.580Z,100115.88
2023-03-06T20:33:49.512Z,100117.19
2023-03-06T20:36:21.803Z,100102.28
2023-03-06T20:38:49.016Z,100097.06
2023-03-06T20:41:36.088Z,100098.34
2023-03-06T20:44:07.659Z,100094.53
2023-03-06T20:46:34.753Z,100092.81
2023-03-06T20:49:02.061Z,100091.88
2023-03-06T20:51:33.244Z,100072.84
2023-03-06T20:54:02.051Z,100070.94
2023-03-06T20:56:32.737Z,100076.34
2023-03-06T20:59:02.776Z,100070.31
2023-03-06T21:01:32.222Z,100056.50
2023-03-06T21:03:59.651Z,100055.59
2023-03-06T21:06:29.374Z,100056.84
2023-03-06T21:08:57.223Z,100049.88
2023-03-06T21:11:26.986Z,100048.47
2023-03-06T21:13:54.224Z,100048.94
2023-03-06T21:16:25.385Z,100053.72
2023-03-06T21:18:56.734Z,100046.72
2023-03-06T21:21:27.648Z,100041.34
2023-03-06T21:23:57.778Z,100029.25
2023-03-06T21:26:27.328Z,100029.13
2023-03-06T21:28:59.566Z,100020.38
2023-03-06T21:31:29.461Z,100022.75
2023-03-06T21:33:59.782Z,100020.09
2023-03-06T21:36:28.203Z,100021.50
2023-03-06T21:38:55.355Z,100022.00
2023-03-06T21:41:28.504Z,100014.69
2023-03-06T21:44:02.813Z,100005.31
2023-03-06T21:46:32.005Z,100014.34
2023-03-06T21:48:59.191Z,100005.63
2023-03-06T21:51:27.748Z,100001.00
2023-03-06T21:53:56.365Z,100001.84
2023-03-06T21:56:28.664Z,100010.88
2023-03-06T21:58:55.727Z,100016.59
2023-03-06T22:01:28.369Z,100003.75
2023-03-06T22:03:57.361Z,100000.84
2023-03-06T22:06:26.150Z,100005.63
2023-03-06T22:08:54.552Z,100014.69
2023-03-06T22:11:22.071Z,99999.13
2023-03-06T22:13:54.244Z,100001.31
2023-03-06T22:16:23.395Z,100000.06
2023-03-06T22:18:51.712Z,99993.06
2023-03-06T22:21:20.991Z,99993.88
2023-03-06T22:23:57.499Z,99982.75
2023-03-06T22:26:24.990Z,99994.00
2023-03-06T22:28:51.522Z,99989.88
2023-03-06T22:31:27.195Z,99983.22
2023-03-06T22:33:56.470Z,99978.31
2023-03-06T22:36:25.192Z,99979.88
2023-03-06T22:38:57.765Z,99982.44
2023-03-06T22:41:26.690Z,99979.22
2023-03-06T22:44:05.020Z,99977.81
2023-03-06T22:46:32.942Z,99968.78
2023-03-06T22:49:01.055Z,99971.47
2023-03-06T22:51:28.863Z,99974.34
2023-03-06T22:53:55.646Z,99974.03
2023-03-06T22:56:22.530Z,99963.38
2023-03-06T22:58:51.433Z,99969.41
2023-03-06T23:01:21.981Z,99962.56
2023-03-06T23:03:59.867Z,99961.97
2023-03-06T23:06:35.234Z,99964.63
2023-03-06T23:09:12.204Z,99962.88
2023-03-06T23:11:39.003Z,99969.41
2023-03-06T23:14:07.696Z,99962.41
2023-03-06T23:16:36.598Z,99960.66
2023-03-06T23:19:05.552Z,99966.09
2023-03-06T23:21:34.584Z,99970.06
2023-03-06T23:24:06.355Z,99962.75
2023-03-06T23:26:40.838Z,99961.16
2023-03-06T23:29:10.935Z,99961.31
2023-03-06T23:31:40.670Z,99953.22
2023-03-06T23:34:13.913Z,99961.47
2023-03-06T23:36:41.870Z,99955.59
2023-03-06T23:39:08.946Z,99952.25
2023-03-06T23:41:40.299Z,99951.94
2023-03-06T23:44:09.490Z,99950.03
2023-03-06T23:46:37.859Z,99949.88
2023-03-06T23:49:07.649Z,99947.19
2023-03-06T23:51:36.448Z,99948.47
2023-03-06T23:54:05.268Z,99947.81
2023-03-06T23:56:34.387Z,99949.53
2023-03-06T23:59:03.136Z,99941.25
